Time;durP1;ratioP1;P1;durP2;ratioP2;P2;SDS_P1;SDS_P2;PMS_P1;PMS_P2;Temp;Humidity;BMP_temperature;BMP_pressure;BME280_temperature;BME280_humidity;BME280_pressure;Samples;Min_cycle;Max_cycle;Signal;HPM_P1;HPM_P2
2023/01/18 00:01:38;;;;;;;3.60;0.70;;;;;;;;;;4947243;28;20456;-77
2023/01/18 00:04:04;;;;;;;0.35;0.35;;;;;;;;;;4939613;28;20521;-77
2023/01/18 00:06:30;;;;;;;0.98;0.77;;;;;;;;;;4952001;28;20095;-77
2023/01/18 00:08:56;;;;;;;0.20;0.20;;;;;;;;;;4947530;28;20453;-76
2023/01/18 00:11:22;;;;;;;0.35;0.35;;;;;;;;;;4948605;28;20249;-74
2023/01/18 00:13:47;;;;;;;0.93;0.25;;;;;;;;;;4951925;28;20138;-76
2023/01/18 00:16:16;;;;;;;0.90;0.30;;;;;;;;;;4953589;28;20043;-80
2023/01/18 00:18:43;;;;;;;0.52;0.38;;;;;;;;;;4949483;28;20602;-83
2023/01/18 00:21:11;;;;;;;0.82;0.30;;;;;;;;;;4944061;28;20063;-84
2023/01/18 00:23:38;;;;;;;1.70;0.40;;;;;;;;;;4945717;28;20054;-82
2023/01/18 00:26:07;;;;;;;0.85;0.40;;;;;;;;;;4945373;28;20054;-81
2023/01/18 00:28:33;;;;;;;0.30;0.30;;;;;;;;;;4949697;28;20139;-73
2023/01/18 00:30:59;;;;;;;0.60;0.30;;;;;;;;;;4952556;28;20058;-77
2023/01/18 00:33:25;;;;;;;0.40;0.30;;;;;;;;;;4945817;28;20463;-74
2023/01/18 00:35:55;;;;;;;0.65;0.30;;;;;;;;;;4946366;28;20059;-83
2023/01/18 00:38:21;;;;;;;0.55;0.30;;;;;;;;;;4945739;28;20639;-79
2023/01/18 00:40:47;;;;;;;0.45;0.28;;;;;;;;;;4941340;28;20051;-76
2023/01/18 00:45:57;;;;;;;0.20;0.20;;;;;;;;;;4950485;28;20114;-74
2023/01/18 00:48:23;;;;;;;0.75;0.30;;;;;;;;;;4948490;28;20040;-75
2023/01/18 00:50:49;;;;;;;1.05;0.30;;;;;;;;;;4949978;28;20061;-77
2023/01/18 00:53:15;;;;;;;0.73;0.40;;;;;;;;;;4938739;28;20122;-74
2023/01/18 00:55:41;;;;;;;0.70;0.38;;;;;;;;;;4947366;28;20051;-77
2023/01/18 00:58:07;;;;;;;0.55;0.55;;;;;;;;;;4949736;28;20142;-81
2023/01/18 01:00:33;;;;;;;0.47;0.40;;;;;;;;;;4953430;28;20066;-75
2023/01/18 01:02:59;;;;;;;1.00;0.57;;;;;;;;;;4949163;28;20464;-77
2023/01/18 01:08:19;;;;;;;0.63;0.32;;;;;;;;;;4950170;28;20050;-80
2023/01/18 01:10:49;;;;;;;;;;;;;;;;;;4944336;29;20062;-77
2023/01/18 01:27:05;;;;;;;;;;;;;;;;;;4956531;28;20062;-80
2023/01/18 01:29:31;;;;;;;0.32;0.30;;;;;;;;;;4949468;28;20029;-77
2023/01/18 01:31:57;;;;;;;0.52;0.38;;;;;;;;;;4950824;28;20075;-80
2023/01/18 01:34:22;;;;;;;0.57;0.45;;;;;;;;;;4946746;28;20340;-80
2023/01/18 01:36:49;;;;;;;1.33;0.40;;;;;;;;;;4951074;29;20125;-80
2023/01/18 01:39:15;;;;;;;4.13;0.60;;;;;;;;;;4945332;28;20106;-80
2023/01/18 01:41:41;;;;;;;0.80;0.50;;;;;;;;;;4947885;28;20051;-76
2023/01/18 01:44:16;;;;;;;1.38;0.63;;;;;;;;;;4942876;28;20062;-79
2023/01/18 01:46:54;;;;;;;0.43;0.40;;;;;;;;;;4945414;28;20055;-73
2023/01/18 01:49:31;;;;;;;0.32;0.25;;;;;;;;;;4946680;28;20192;-76
2023/01/18 01:52:04;;;;;;;0.45;0.40;;;;;;;;;;4947433;28;20047;-77
2023/01/18 01:54:58;;;;;;;0.70;0.40;;;;;;;;;;4945621;28;20067;-79
2023/01/18 01:57:29;;;;;;;1.13;0.63;;;;;;;;;;4950812;28;20059;-82
2023/01/18 01:59:59;;;;;;;0.98;0.30;;;;;;;;;;4953269;28;20122;-78
2023/01/18 02:02:26;;;;;;;0.32;0.20;;;;;;;;;;4957766;28;20074;-73
2023/01/18 02:04:54;;;;;;;1.08;0.38;;;;;;;;;;4949114;28;20568;-77
2023/01/18 02:07:21;;;;;;;1.20;0.40;;;;;;;;;;4946581;28;20555;-79
2023/01/18 02:09:49;;;;;;;0.30;0.30;;;;;;;;;;4943702;28;20119;-80
2023/01/18 02:12:15;;;;;;;0.30;0.30;;;;;;;;;;4949673;28;20066;-79
2023/01/18 02:14:41;;;;;;;0.22;0.22;;;;;;;;;;4943571;28;20051;-78
2023/01/18 02:17:13;;;;;;;0.30;0.30;;;;;;;;;;4940816;28;20043;-78
2023/01/18 02:20:10;;;;;;;0.40;0.40;;;;;;;;;;4943964;28;20045;-81
2023/01/18 02:22:38;;;;;;;1.40;0.30;;;;;;;;;;4944207;28;20082;-79
2023/01/18 02:25:04;;;;;;;0.47;0.30;;;;;;;;;;4945269;28;20043;-81
2023/01/18 02:27:46;;;;;;;1.55;0.60;;;;;;;;;;4944855;28;20055;-78
2023/01/18 02:30:52;;;;;;;0.60;0.50;;;;;;;;;;4945489;28;20058;-79
2023/01/18 02:33:47;;;;;;;2.95;0.40;;;;;;;;;;4943827;28;20071;-74
2023/01/18 02:36:25;;;;;;;1.23;0.63;;;;;;;;;;4945916;28;20078;-81
2023/01/18 02:38:59;;;;;;;0.98;0.50;;;;;;;;;;4945718;28;20051;-76
2023/01/18 02:47:10;;;;;;;1.25;0.45;;;;;;;;;;4949390;28;20047;-83
2023/01/18 02:49:36;;;;;;;0.60;0.38;;;;;;;;;;4948721;28;20109;-74
2023/01/18 02:52:04;;;;;;;1.30;0.50;;;;;;;;;;4943201;28;20502;-78
2023/01/18 02:54:33;;;;;;;0.63;0.40;;;;;;;;;;4949981;28;20040;-82
2023/01/18 02:57:04;;;;;;;2.05;0.40;;;;;;;;;;4948602;28;20047;-72
2023/01/18 02:59:35;;;;;;;0.90;0.40;;;;;;;;;;4951191;28;20059;-81
2023/01/18 03:02:09;;;;;;;0.65;0.40;;;;;;;;;;4946390;28;20109;-78
2023/01/18 03:04:52;;;;;;;0.70;0.43;;;;;;;;;;4939386;28;20044;-73
2023/01/18 03:07:28;;;;;;;0.55;0.55;;;;;;;;;;4948382;28;20078;-81
2023/01/18 03:09:56;;;;;;;2.50;0.70;;;;;;;;;;4943502;28;20174;-83
2023/01/18 03:12:44;;;;;;;0.40;0.40;;;;;;;;;;4942227;28;20141;-83
2023/01/18 03:15:19;;;;;;;0.93;0.50;;;;;;;;;;4943679;28;20322;-83
2023/01/18 03:17:47;;;;;;;;;;;;;;;;;;4946832;28;20047;-75
2023/01/18 03:20:17;;;;;;;0.98;0.60;;;;;;;;;;4944099;28;19989;-76
2023/01/18 03:23:37;;;;;;;0.80;0.55;;;;;;;;;;4939958;28;20051;-76
2023/01/18 03:25:58;;;;;;;0.50;0.40;;;;;;;;;;4939477;28;20122;-80
2023/01/18 03:34:19;;;;;;;1.25;0.40;;;;;;;;;;4939927;28;20138;-80
2023/01/18 03:36:48;;;;;;;0.30;0.30;;;;;;;;;;4937624;28;20051;-84
2023/01/18 03:39:23;;;;;;;0.30;0.30;;;;;;;;;;4941947;28;20171;-77
2023/01/18 03:41:53;;;;;;;0.82;0.38;;;;;;;;;;4937540;28;20047;-78
2023/01/18 03:44:31;;;;;;;1.88;0.45;;;;;;;;;;4959139;28;20047;-78
2023/01/18 03:46:57;;;;;;;0.35;0.28;;;;;;;;;;4940770;28;20058;-77
2023/01/18 03:49:26;;;;;;;1.25;0.50;;;;;;;;;;4937332;28;20043;-76
2023/01/18 03:52:04;;;;;;;0.98;0.40;;;;;;;;;;4944416;28;20156;-75
2023/01/18 03:54:48;;;;;;;1.15;0.43;;;;;;;;;;4940696;28;20047;-82
2023/01/18 03:57:22;;;;;;;1.98;0.50;;;;;;;;;;4940868;28;20053;-75
2023/01/18 03:59:48;;;;;;;1.00;0.50;;;;;;;;;;4940870;28;20094;-80
2023/01/18 04:02:16;;;;;;;1.23;0.40;;;;;;;;;;4941514;28;20123;-75
2023/01/18 04:04:42;;;;;;;0.47;0.40;;;;;;;;;;4943470;28;20102;-76
2023/01/18 04:07:08;;;;;;;0.32;0.30;;;;;;;;;;4942751;28;20059;-80
2023/01/18 04:09:34;;;;;;;0.40;0.35;;;;;;;;;;4953930;28;20050;-80
2023/01/18 04:12:00;;;;;;;0.73;0.50;;;;;;;;;;4958818;28;20060;-79
2023/01/18 04:14:25;;;;;;;0.73;0.45;;;;;;;;;;4954470;28;20058;-78
2023/01/18 04:16:51;;;;;;;0.30;0.30;;;;;;;;;;4940214;28;20063;-80
2023/01/18 04:19:17;;;;;;;0.73;0.40;;;;;;;;;;4944825;28;20212;-76
2023/01/18 04:21:43;;;;;;;1.23;0.47;;;;;;;;;;4940239;28;20047;-81
2023/01/18 04:24:10;;;;;;;0.77;0.50;;;;;;;;;;4944069;28;20043;-76
2023/01/18 04:26:37;;;;;;;1.48;0.40;;;;;;;;;;4944403;28;20043;-81
2023/01/18 04:29:03;;;;;;;3.60;0.60;;;;;;;;;;4948390;28;20567;-79
2023/01/18 04:31:30;;;;;;;0.63;0.30;;;;;;;;;;4940566;28;20062;-82
2023/01/18 04:33:56;;;;;;;1.05;0.40;;;;;;;;;;4946575;28;20504;-82
2023/01/18 04:36:22;;;;;;;1.45;0.40;;;;;;;;;;4948834;28;20115;-77
2023/01/18 04:38:54;;;;;;;0.25;0.25;;;;;;;;;;4944917;28;20493;-81
2023/01/18 04:41:20;;;;;;;0.77;0.40;;;;;;;;;;4941582;28;20063;-76
2023/01/18 04:43:46;;;;;;;0.47;0.30;;;;;;;;;;4946053;28;20061;-82
2023/01/18 04:46:14;;;;;;;0.25;0.25;;;;;;;;;;4951819;28;20047;-77
2023/01/18 04:48:40;;;;;;;0.75;0.50;;;;;;;;;;4945763;28;20071;-79
2023/01/18 04:51:13;;;;;;;0.20;0.20;;;;;;;;;;4945787;28;20047;-79
2023/01/18 04:53:41;;;;;;;0.47;0.30;;;;;;;;;;4950283;28;20043;-82
2023/01/18 04:56:08;;;;;;;0.93;0.22;;;;;;;;;;4944217;28;20274;-75
2023/01/18 04:58:33;;;;;;;0.40;0.40;;;;;;;;;;4946903;28;20062;-84
2023/01/18 05:01:05;;;;;;;0.85;0.40;;;;;;;;;;4945895;28;20572;-74
2023/01/18 05:03:36;;;;;;;0.68;0.40;;;;;;;;;;4941505;28;20180;-75
2023/01/18 05:06:14;;;;;;;0.63;0.40;;;;;;;;;;4949919;28;20056;-76
2023/01/18 05:08:40;;;;;;;1.90;0.60;;;;;;;;;;4962283;28;20047;-76
2023/01/18 05:11:15;;;;;;;1.40;0.50;;;;;;;;;;4964698;28;20054;-78
2023/01/18 05:13:42;;;;;;;5.05;0.50;;;;;;;;;;4948390;28;20677;-78
2023/01/18 05:16:22;;;;;;;0.40;0.40;;;;;;;;;;4940783;28;20058;-80
2023/01/18 05:18:47;;;;;;;2.47;0.20;;;;;;;;;;4941416;28;20051;-79
2023/01/18 05:21:14;;;;;;;0.28;0.28;;;;;;;;;;4942682;28;20141;-79
2023/01/18 05:23:41;;;;;;;1.35;0.45;;;;;;;;;;4949370;28;20101;-80
2023/01/18 05:26:14;;;;;;;2.63;0.80;;;;;;;;;;4946685;28;20052;-73
2023/01/18 05:28:41;;;;;;;0.40;0.40;;;;;;;;;;4938956;28;20512;-81
2023/01/18 05:31:07;;;;;;;0.82;0.30;;;;;;;;;;4939653;28;20077;-78
2023/01/18 05:33:33;;;;;;;0.80;0.70;;;;;;;;;;4939020;28;20073;-76
2023/01/18 05:35:59;;;;;;;0.40;0.40;;;;;;;;;;4959973;28;20821;-79
2023/01/18 05:38:25;;;;;;;0.77;0.68;;;;;;;;;;4964234;28;20106;-76
2023/01/18 05:40:53;;;;;;;3.03;0.40;;;;;;;;;;4959914;28;21681;-76
2023/01/18 05:43:20;;;;;;;0.43;0.35;;;;;;;;;;4959838;28;20088;-76
2023/01/18 05:45:46;;;;;;;1.17;0.60;;;;;;;;;;4952861;28;20047;-77
2023/01/18 05:48:12;;;;;;;0.88;0.40;;;;;;;;;;4946511;28;20043;-76
2023/01/18 05:50:40;;;;;;;0.30;0.30;;;;;;;;;;4944871;28;20058;-82
2023/01/18 05:53:06;;;;;;;1.23;0.43;;;;;;;;;;4939035;28;20086;-84
2023/01/18 05:55:32;;;;;;;2.35;0.50;;;;;;;;;;4947803;28;20043;-77
2023/01/18 05:57:58;;;;;;;0.50;0.47;;;;;;;;;;4939826;28;20056;-74
2023/01/18 06:00:24;;;;;;;1.02;0.50;;;;;;;;;;4936900;28;20175;-76
2023/01/18 06:02:51;;;;;;;0.95;0.47;;;;;;;;;;4943565;28;20232;-85
2023/01/18 06:05:17;;;;;;;0.82;0.50;;;;;;;;;;4951040;28;20142;-80
2023/01/18 06:07:43;;;;;;;0.50;0.43;;;;;;;;;;4955479;28;20445;-81
2023/01/18 06:10:10;;;;;;;0.30;0.30;;;;;;;;;;4954183;28;20039;-83
2023/01/18 06:12:35;;;;;;;0.77;0.45;;;;;;;;;;4956595;28;20125;-78
2023/01/18 06:15:02;;;;;;;4.65;0.43;;;;;;;;;;4951940;28;20059;-74
2023/01/18 06:17:30;;;;;;;0.70;0.35;;;;;;;;;;4957357;28;20110;-77
2023/01/18 06:19:56;;;;;;;1.05;0.50;;;;;;;;;;4945611;28;20054;-74
2023/01/18 06:22:22;;;;;;;1.02;0.47;;;;;;;;;;4944382;28;20066;-76
2023/01/18 06:24:49;;;;;;;2.10;0.47;;;;;;;;;;4946482;28;20087;-74
2023/01/18 06:27:14;;;;;;;0.50;0.50;;;;;;;;;;4941956;28;20047;-82
2023/01/18 06:29:40;;;;;;;1.85;0.50;;;;;;;;;;4941181;28;20537;-79
2023/01/18 06:32:06;;;;;;;1.17;0.55;;;;;;;;;;4947605;28;20154;-73
2023/01/18 06:34:33;;;;;;;2.88;0.50;;;;;;;;;;4945065;28;20059;-75
2023/01/18 06:36:59;;;;;;;1.02;0.70;;;;;;;;;;4946258;28;20511;-78
2023/01/18 06:39:25;;;;;;;4.32;0.80;;;;;;;;;;4938941;28;20138;-76
2023/01/18 06:41:50;;;;;;;0.60;0.55;;;;;;;;;;4940174;28;20059;-76
2023/01/18 06:44:17;;;;;;;1.02;0.73;;;;;;;;;;4938509;28;20221;-76
2023/01/18 06:46:43;;;;;;;3.05;0.80;;;;;;;;;;4936350;28;20074;-74
2023/01/18 06:49:10;;;;;;;0.80;0.70;;;;;;;;;;4939866;28;20109;-77
2023/01/18 06:51:36;;;;;;;1.23;0.77;;;;;;;;;;4935025;28;20075;-77
2023/01/18 06:54:02;;;;;;;1.73;0.90;;;;;;;;;;4940381;28;20088;-79
2023/01/18 06:56:28;;;;;;;1.98;0.70;;;;;;;;;;4939038;28;20405;-75
2023/01/18 06:58:56;;;;;;;1.10;0.70;;;;;;;;;;4943120;28;20094;-79
2023/01/18 07:01:22;;;;;;;2.47;0.90;;;;;;;;;;4953272;28;20927;-77
2023/01/18 07:03:48;;;;;;;2.33;0.82;;;;;;;;;;4945464;28;20087;-80
2023/01/18 07:06:14;;;;;;;1.17;0.60;;;;;;;;;;4936284;28;20046;-77
2023/01/18 07:08:40;;;;;;;2.03;0.88;;;;;;;;;;4934376;28;20058;-75
2023/01/18 07:11:09;;;;;;;2.60;0.80;;;;;;;;;;4940022;28;20955;-74
2023/01/18 07:13:38;;;;;;;2.90;0.98;;;;;;;;;;4938189;28;20047;-78
2023/01/18 07:16:05;;;;;;;1.77;0.73;;;;;;;;;;4943514;28;20063;-78
2023/01/18 07:18:31;;;;;;;1.25;0.88;;;;;;;;;;4938485;28;20389;-79
2023/01/18 07:21:05;;;;;;;3.00;0.80;;;;;;;;;;4936990;28;20051;-75
2023/01/18 07:23:34;;;;;;;1.13;0.80;;;;;;;;;;4935696;28;20520;-79
2023/01/18 07:26:02;;;;;;;1.40;0.80;;;;;;;;;;4934512;28;20804;-77
2023/01/18 07:28:30;;;;;;;1.70;0.90;;;;;;;;;;4935838;28;20062;-76
2023/01/18 07:30:56;;;;;;;3.30;0.77;;;;;;;;;;4942079;28;20607;-80
2023/01/18 07:33:22;;;;;;;1.30;0.77;;;;;;;;;;4938388;28;20169;-78
2023/01/18 07:35:52;;;;;;;1.75;0.80;;;;;;;;;;4935298;28;20389;-75
2023/01/18 07:38:19;;;;;;;5.60;1.23;;;;;;;;;;4934688;28;20090;-76
2023/01/18 07:40:46;;;;;;;1.67;0.90;;;;;;;;;;4938475;28;20047;-83
2023/01/18 07:43:13;;;;;;;3.50;0.80;;;;;;;;;;4941373;28;20047;-78
2023/01/18 07:45:39;;;;;;;1.67;0.90;;;;;;;;;;4933403;29;20047;-75
2023/01/18 07:48:05;;;;;;;6.65;1.05;;;;;;;;;;4934097;28;20062;-73
2023/01/18 07:50:32;;;;;;;1.23;0.77;;;;;;;;;;4940292;28;20050;-80
2023/01/18 07:53:03;;;;;;;3.95;1.00;;;;;;;;;;4943710;28;20055;-77
2023/01/18 07:55:32;;;;;;;2.10;0.77;;;;;;;;;;4947269;28;20050;-76
2023/01/18 07:57:59;;;;;;;7.20;1.40;;;;;;;;;;4947834;28;20055;-80
2023/01/18 08:00:26;;;;;;;3.30;1.05;;;;;;;;;;4947367;28;20405;-78
2023/01/18 08:02:53;;;;;;;0.85;0.70;;;;;;;;;;4944026;28;20058;-81
2023/01/18 08:05:22;;;;;;;6.05;0.90;;;;;;;;;;4938848;28;20051;-76
2023/01/18 08:07:49;;;;;;;5.30;1.00;;;;;;;;;;4939244;28;20063;-78
2023/01/18 08:10:16;;;;;;;1.45;0.82;;;;;;;;;;4944660;28;20710;-81
2023/01/18 08:12:42;;;;;;;1.50;0.70;;;;;;;;;;4944166;28;20039;-78
2023/01/18 08:15:08;;;;;;;2.08;0.77;;;;;;;;;;4949523;28;20493;-78
2023/01/18 08:17:34;;;;;;;4.57;0.82;;;;;;;;;;4943493;28;20649;-74
2023/01/18 08:20:00;;;;;;;4.53;0.80;;;;;;;;;;4941072;28;20039;-77
2023/01/18 08:22:27;;;;;;;2.40;0.70;;;;;;;;;;4943515;28;20043;-77
2023/01/18 08:24:53;;;;;;;2.10;0.80;;;;;;;;;;4939305;28;20050;-76
2023/01/18 08:27:19;;;;;;;2.80;0.65;;;;;;;;;;4959713;28;20158;-76
2023/01/18 08:29:45;;;;;;;3.13;0.77;;;;;;;;;;4940436;28;20043;-76
2023/01/18 08:32:11;;;;;;;1.10;0.70;;;;;;;;;;4946475;28;20797;-75
2023/01/18 08:34:38;;;;;;;1.05;0.75;;;;;;;;;;4945190;28;20117;-73
2023/01/18 08:37:04;;;;;;;4.40;0.98;;;;;;;;;;4942137;28;20048;-75
2023/01/18 08:39:30;;;;;;;3.63;1.00;;;;;;;;;;4943051;28;20054;-77
2023/01/18 08:41:56;;;;;;;2.42;0.93;;;;;;;;;;4933316;28;20067;-76
2023/01/18 08:44:23;;;;;;;3.85;0.90;;;;;;;;;;4942876;28;20055;-77
2023/01/18 08:46:49;;;;;;;2.15;0.50;;;;;;;;;;4942447;28;20058;-75
2023/01/18 08:49:15;;;;;;;1.33;0.88;;;;;;;;;;4948129;28;20043;-80
2023/01/18 08:51:41;;;;;;;2.30;0.73;;;;;;;;;;4946282;28;20505;-82
2023/01/18 08:54:07;;;;;;;1.92;0.70;;;;;;;;;;4944641;28;20102;-77
2023/01/18 08:56:33;;;;;;;2.15;0.75;;;;;;;;;;4945100;28;20129;-78
2023/01/18 08:58:59;;;;;;;3.30;0.80;;;;;;;;;;4939432;28;20146;-74
2023/01/18 09:01:25;;;;;;;4.63;0.98;;;;;;;;;;4954792;28;20508;-77
2023/01/18 09:03:56;;;;;;;2.13;0.73;;;;;;;;;;4939199;28;20056;-75
2023/01/18 09:06:22;;;;;;;3.03;0.63;;;;;;;;;;4943114;28;20052;-77
2023/01/18 09:08:49;;;;;;;1.33;0.65;;;;;;;;;;4945507;28;20503;-75
2023/01/18 09:11:16;;;;;;;1.50;0.75;;;;;;;;;;4944613;28;20047;-77
2023/01/18 09:13:42;;;;;;;2.58;0.60;;;;;;;;;;4940824;28;20043;-80
2023/01/18 09:16:09;;;;;;;1.67;0.70;;;;;;;;;;4941484;28;20362;-75
2023/01/18 09:18:36;;;;;;;1.50;0.73;;;;;;;;;;4942869;28;20039;-74
2023/01/18 09:21:10;;;;;;;0.95;0.70;;;;;;;;;;4941934;28;20069;-77
2023/01/18 09:23:38;;;;;;;1.98;0.70;;;;;;;;;;4944637;28;20058;-77
2023/01/18 09:26:09;;;;;;;2.15;1.10;;;;;;;;;;4946422;28;20350;-78
2023/01/18 09:28:34;;;;;;;1.92;0.75;;;;;;;;;;4932502;28;20051;-78
2023/01/18 09:31:02;;;;;;;2.90;1.13;;;;;;;;;;4939588;28;20043;-79
2023/01/18 09:33:29;;;;;;;1.20;0.80;;;;;;;;;;4943385;28;20058;-80
2023/01/18 09:35:56;;;;;;;3.40;0.80;;;;;;;;;;4943384;28;20051;-76
2023/01/18 09:38:22;;;;;;;3.55;0.98;;;;;;;;;;4929695;28;20055;-77
2023/01/18 09:40:51;;;;;;;6.07;1.50;;;;;;;;;;4945099;28;20114;-76
2023/01/18 09:43:31;;;;;;;1.98;0.98;;;;;;;;;;4945925;28;20043;-78
2023/01/18 09:45:58;;;;;;;1.27;0.68;;;;;;;;;;4938713;28;20086;-74
2023/01/18 09:48:36;;;;;;;3.28;1.15;;;;;;;;;;4940834;28;20054;-76
2023/01/18 09:51:18;;;;;;;0.77;0.50;;;;;;;;;;4939368;28;20069;-76
2023/01/18 09:53:50;;;;;;;0.52;0.47;;;;;;;;;;4936112;28;20043;-76
2023/01/18 09:56:41;;;;;;;0.90;0.60;;;;;;;;;;4946341;28;20055;-77
2023/01/18 09:59:21;;;;;;;3.15;0.80;;;;;;;;;;4943784;28;20074;-75
2023/01/18 10:01:49;;;;;;;1.08;0.70;;;;;;;;;;4934529;28;20460;-75
2023/01/18 10:04:31;;;;;;;2.35;0.80;;;;;;;;;;4945246;28;20058;-77
2023/01/18 10:07:00;;;;;;;4.88;0.77;;;;;;;;;;4938877;28;20055;-77
2023/01/18 10:09:40;;;;;;;2.63;1.00;;;;;;;;;;4944084;28;20402;-75
2023/01/18 10:12:18;;;;;;;1.35;0.93;;;;;;;;;;4947805;28;20066;-77
2023/01/18 10:14:47;;;;;;;1.38;0.90;;;;;;;;;;4943489;28;20081;-76
2023/01/18 10:17:22;;;;;;;2.58;1.15;;;;;;;;;;4944112;28;20067;-79
2023/01/18 10:19:49;;;;;;;3.80;0.82;;;;;;;;;;4937402;28;20056;-76
2023/01/18 10:22:24;;;;;;;0.57;0.50;;;;;;;;;;4942242;28;20051;-77
2023/01/18 10:25:05;;;;;;;2.05;0.80;;;;;;;;;;4945149;28;20039;-76
2023/01/18 10:27:36;;;;;;;1.98;0.88;;;;;;;;;;4943117;28;20082;-75
2023/01/18 10:30:24;;;;;;;2.55;1.10;;;;;;;;;;4938080;28;20058;-78
2023/01/18 10:32:55;;;;;;;2.20;0.80;;;;;;;;;;4939808;28;20064;-76
2023/01/18 10:35:33;;;;;;;2.00;0.90;;;;;;;;;;4935423;28;20416;-75
2023/01/18 10:38:07;;;;;;;2.25;0.80;;;;;;;;;;4939809;28;20054;-77
2023/01/18 10:40:36;;;;;;;5.03;1.00;;;;;;;;;;4943422;28;20055;-76
2023/01/18 10:43:09;;;;;;;3.20;0.90;;;;;;;;;;4941818;28;20059;-75
2023/01/18 10:45:35;;;;;;;1.30;0.68;;;;;;;;;;4943625;28;20106;-75
2023/01/18 10:48:16;;;;;;;1.95;0.77;;;;;;;;;;4943643;28;20055;-75
2023/01/18 10:50:45;;;;;;;5.55;0.80;;;;;;;;;;4945600;28;20162;-75
2023/01/18 10:53:38;;;;;;;2.95;0.80;;;;;;;;;;4944775;28;20059;-72
2023/01/18 10:56:11;;;;;;;4.82;0.70;;;;;;;;;;4939149;28;20064;-77
2023/01/18 10:58:43;;;;;;;0.98;0.60;;;;;;;;;;4938954;28;20319;-79
2023/01/18 11:01:16;;;;;;;1.35;0.70;;;;;;;;;;4944799;28;20051;-75
2023/01/18 11:04:01;;;;;;;1.33;0.60;;;;;;;;;;4940991;28;20490;-75
2023/01/18 11:06:28;;;;;;;3.05;0.95;;;;;;;;;;4943524;28;20051;-76
2023/01/18 11:08:54;;;;;;;2.80;0.95;;;;;;;;;;4941725;28;20059;-74
2023/01/18 11:12:32;;;;;;;2.90;1.45;;;;;;;;;;4934574;28;20417;-76
2023/01/18 11:14:29;;;;;;;3.58;1.00;;;;;;;;;;4942683;28;20058;-74
2023/01/18 11:17:01;;;;;;;1.83;0.70;;;;;;;;;;4941646;28;20054;-76
2023/01/18 11:19:28;;;;;;;3.40;0.88;;;;;;;;;;4938320;28;20559;-74
2023/01/18 11:21:54;;;;;;;1.67;0.70;;;;;;;;;;4939052;28;20519;-73
2023/01/18 11:24:28;;;;;;;2.05;1.10;;;;;;;;;;4944509;28;20513;-75
2023/01/18 11:27:03;;;;;;;0.57;0.57;;;;;;;;;;4942146;28;20035;-74
2023/01/18 11:29:41;;;;;;;2.83;0.73;;;;;;;;;;4942458;28;20063;-74
2023/01/18 11:32:24;;;;;;;0.70;0.57;;;;;;;;;;4936670;28;20744;-78
2023/01/18 11:34:53;;;;;;;1.52;0.85;;;;;;;;;;4906363;29;20131;-75
2023/01/18 11:37:42;;;;;;;2.15;0.60;;;;;;;;;;4905621;29;20052;-74
2023/01/18 11:40:26;;;;;;;1.38;0.90;;;;;;;;;;4897293;29;20152;-72
2023/01/18 11:43:12;;;;;;;1.48;0.63;;;;;;;;;;4898728;29;20514;-75
2023/01/18 11:45:53;;;;;;;1.77;0.70;;;;;;;;;;4899175;29;20048;-76
2023/01/18 11:48:41;;;;;;;0.77;0.60;;;;;;;;;;4898774;29;20119;-74
2023/01/18 11:51:44;;;;;;;2.60;0.70;;;;;;;;;;4904469;29;20056;-74
2023/01/18 11:54:31;;;;;;;1.75;0.57;;;;;;;;;;4901945;29;20131;-74
2023/01/18 11:57:03;;;;;;;1.65;0.70;;;;;;;;;;4903298;29;20071;-72
2023/01/18 11:59:44;;;;;;;1.73;0.50;;;;;;;;;;4903148;29;20738;-75
2023/01/18 12:02:31;;;;;;;1.75;0.70;;;;;;;;;;4904512;29;20115;-74
2023/01/18 12:05:00;;;;;;;1.35;0.70;;;;;;;;;;4898564;29;20660;-75
2023/01/18 12:08:04;;;;;;;1.98;0.80;;;;;;;;;;4898400;29;20931;-74
2023/01/18 12:10:53;;;;;;;0.40;0.30;;;;;;;;;;4897764;29;20125;-72
2023/01/18 12:13:42;;;;;;;2.70;0.73;;;;;;;;;;4894476;29;20080;-72
2023/01/18 12:16:29;;;;;;;1.42;0.80;;;;;;;;;;4904544;29;20501;-74
2023/01/18 12:19:17;;;;;;;1.40;0.68;;;;;;;;;;4903972;29;20360;-74
2023/01/18 12:22:03;;;;;;;2.75;1.05;;;;;;;;;;4903483;29;20056;-71
2023/01/18 12:24:50;;;;;;;1.70;0.70;;;;;;;;;;4902760;29;20710;-74
2023/01/18 12:27:32;;;;;;;1.20;0.45;;;;;;;;;;4899132;29;20052;-73
2023/01/18 12:30:12;;;;;;;2.40;0.50;;;;;;;;;;4904268;29;20066;-76
2023/01/18 12:32:53;;;;;;;0.75;0.40;;;;;;;;;;4903770;28;20142;-76
2023/01/18 12:35:20;;;;;;;2.15;0.63;;;;;;;;;;4938074;29;20130;-74
2023/01/18 12:37:58;;;;;;;1.08;0.50;;;;;;;;;;4942622;28;20153;-73
2023/01/18 12:40:43;;;;;;;0.75;0.60;;;;;;;;;;4942287;28;20090;-73
2023/01/18 12:43:08;;;;;;;0.57;0.50;;;;;;;;;;4946297;28;20054;-75
2023/01/18 12:45:39;;;;;;;5.53;0.88;;;;;;;;;;4944487;28;20896;-73
2023/01/18 12:48:26;;;;;;;0.73;0.50;;;;;;;;;;4937317;28;20514;-75
2023/01/18 12:50:55;;;;;;;1.55;0.95;;;;;;;;;;4946755;28;20054;-74
2023/01/18 12:53:50;;;;;;;9.63;0.80;;;;;;;;;;4945737;28;20043;-72
2023/01/18 12:56:39;;;;;;;0.80;0.60;;;;;;;;;;4938110;28;20078;-74
2023/01/18 12:59:13;;;;;;;1.98;0.82;;;;;;;;;;4941702;28;20078;-73
2023/01/18 13:01:44;;;;;;;1.00;0.68;;;;;;;;;;4940532;28;20059;-73
2023/01/18 13:04:20;;;;;;;0.98;0.47;;;;;;;;;;4934721;28;20055;-74
2023/01/18 13:06:52;;;;;;;1.45;0.82;;;;;;;;;;4943668;28;20052;-74
2023/01/18 13:09:23;;;;;;;1.05;0.70;;;;;;;;;;4939719;28;20493;-72
2023/01/18 13:11:49;;;;;;;1.27;0.50;;;;;;;;;;4941946;28;20063;-73
2023/01/18 13:14:42;;;;;;;1.60;0.65;;;;;;;;;;4942530;28;20515;-73
2023/01/18 13:17:32;;;;;;;1.08;0.43;;;;;;;;;;4937273;28;20129;-74
2023/01/18 13:20:06;;;;;;;0.65;0.50;;;;;;;;;;4939245;28;20117;-73
2023/01/18 13:22:41;;;;;;;2.33;0.55;;;;;;;;;;4943430;28;20046;-74
2023/01/18 13:25:18;;;;;;;;;;;;;;;;;;4945105;28;20575;-76
2023/01/18 13:28:19;;;;;;;1.52;0.60;;;;;;;;;;4942396;28;19922;-76
2023/01/18 13:31:03;;;;;;;2.15;0.80;;;;;;;;;;4938154;28;20465;-76
2023/01/18 13:33:33;;;;;;;3.97;1.13;;;;;;;;;;4940311;28;20061;-77
2023/01/18 13:36:06;;;;;;;1.48;0.47;;;;;;;;;;4938488;28;20055;-73
2023/01/18 13:38:38;;;;;;;1.20;0.63;;;;;;;;;;4940640;28;20057;-76
2023/01/18 13:41:11;;;;;;;1.00;0.50;;;;;;;;;;4946261;28;20049;-74
2023/01/18 13:43:44;;;;;;;2.35;0.55;;;;;;;;;;4945011;28;20047;-73
2023/01/18 13:46:34;;;;;;;2.33;1.00;;;;;;;;;;4944938;28;20043;-74
2023/01/18 13:49:19;;;;;;;0.85;0.50;;;;;;;;;;4943813;28;20051;-71
2023/01/18 13:51:50;;;;;;;2.70;0.60;;;;;;;;;;4945180;28;20039;-73
2023/01/18 13:54:20;;;;;;;0.73;0.68;;;;;;;;;;4943052;28;20413;-78
2023/01/18 13:57:03;;;;;;;0.50;0.43;;;;;;;;;;4942827;28;20047;-75
2023/01/18 13:59:50;;;;;;;0.90;0.75;;;;;;;;;;4941408;28;20086;-76
2023/01/18 14:02:22;;;;;;;2.05;0.80;;;;;;;;;;4943006;28;20226;-76
2023/01/18 14:05:14;;;;;;;0.77;0.50;;;;;;;;;;4945735;28;20829;-75
2023/01/18 14:07:44;;;;;;;6.60;0.40;;;;;;;;;;4931573;29;20058;-75
2023/01/18 14:10:37;;;;;;;2.22;0.70;;;;;;;;;;4938890;28;20264;-75
2023/01/18 14:13:05;;;;;;;1.52;0.75;;;;;;;;;;4935887;28;20056;-75
2023/01/18 14:15:51;;;;;;;1.33;0.40;;;;;;;;;;4935650;28;20051;-74
2023/01/18 14:18:25;;;;;;;1.27;0.85;;;;;;;;;;4941079;28;20050;-74
2023/01/18 14:21:19;;;;;;;0.95;0.55;;;;;;;;;;4946337;28;20063;-73
2023/01/18 14:24:00;;;;;;;0.57;0.45;;;;;;;;;;4936295;28;20091;-73
2023/01/18 14:26:29;;;;;;;0.93;0.47;;;;;;;;;;4941982;28;20064;-75
2023/01/18 14:29:06;;;;;;;0.40;0.40;;;;;;;;;;4942129;28;20627;-74
2023/01/18 14:31:41;;;;;;;4.45;1.85;;;;;;;;;;4942668;28;20059;-74
2023/01/18 14:34:28;;;;;;;2.25;0.70;;;;;;;;;;4938226;28;20055;-77
2023/01/18 14:36:59;;;;;;;1.30;0.60;;;;;;;;;;4942142;28;20059;-76
2023/01/18 14:39:25;;;;;;;1.17;0.60;;;;;;;;;;4941951;28;20133;-77
2023/01/18 14:41:57;;;;;;;3.20;0.60;;;;;;;;;;4938514;28;20059;-75
2023/01/18 14:44:34;;;;;;;0.63;0.38;;;;;;;;;;4940573;28;20493;-74
2023/01/18 14:47:01;;;;;;;4.18;0.50;;;;;;;;;;4938903;28;20047;-78
2023/01/18 14:49:36;;;;;;;3.08;0.43;;;;;;;;;;4935030;29;20103;-77
2023/01/18 14:52:03;;;;;;;1.70;0.47;;;;;;;;;;4942276;28;20050;-76
2023/01/18 14:54:30;;;;;;;1.85;0.43;;;;;;;;;;4946374;28;20395;-75
2023/01/18 14:57:04;;;;;;;0.47;0.40;;;;;;;;;;4940585;28;20660;-75
2023/01/18 14:59:32;;;;;;;1.52;0.50;;;;;;;;;;4945656;28;20043;-76
2023/01/18 15:02:02;;;;;;;3.72;0.75;;;;;;;;;;4933000;28;20413;-72
2023/01/18 15:04:31;;;;;;;1.08;0.82;;;;;;;;;;4940807;28;20043;-77
2023/01/18 15:07:09;;;;;;;0.22;0.20;;;;;;;;;;4941635;28;20062;-72
2023/01/18 15:09:37;;;;;;;1.85;0.65;;;;;;;;;;4943075;28;20102;-77
2023/01/18 15:12:07;;;;;;;0.90;0.70;;;;;;;;;;4941336;28;20514;-74
2023/01/18 15:14:40;;;;;;;2.63;0.70;;;;;;;;;;4936922;28;20059;-72
2023/01/18 15:17:08;;;;;;;5.20;0.47;;;;;;;;;;4940301;28;20527;-73
2023/01/18 15:19:43;;;;;;;0.90;0.50;;;;;;;;;;4940487;28;20463;-73
2023/01/18 15:22:15;;;;;;;0.70;0.50;;;;;;;;;;4936295;28;20060;-73
2023/01/18 15:24:44;;;;;;;3.65;0.60;;;;;;;;;;4938415;28;20039;-77
2023/01/18 15:27:16;;;;;;;0.80;0.60;;;;;;;;;;4944693;28;20059;-75
2023/01/18 15:29:53;;;;;;;2.70;0.63;;;;;;;;;;4946227;28;20046;-73
2023/01/18 15:32:21;;;;;;;2.47;0.40;;;;;;;;;;4960071;28;20055;-77
2023/01/18 15:34:49;;;;;;;2.28;0.60;;;;;;;;;;4941413;28;20055;-78
2023/01/18 15:37:26;;;;;;;2.45;0.50;;;;;;;;;;4943144;28;20062;-79
2023/01/18 15:40:20;;;;;;;1.73;0.50;;;;;;;;;;4948425;29;20457;-75
2023/01/18 15:43:05;;;;;;;1.25;0.50;;;;;;;;;;4939880;28;20063;-75